Latest Weather Observations for Lockhart River

IDQ60801

Issued at 2:32 pm EST Wednesday 1 July 2015 (issued every 30 minutes, with the page automatically refreshed every 10 minutes)

About weather observations | Map of weather stations | Latest weather observations for QLD | Other Formats
Station Details ID: 028008 Name: LOCKHART RIVER AIRPORT Lat: -12.79 Lon: 143.30 Height: 18.5 m
Data from the previous 72 hours. | See also: Recent months at Lockhart River
Date/Time
EST
Temp
°C
App
Temp
°C
Dew
Point
Rel
Hum
%
Delta-T
°C
Wind Press
QNH
hPa
Press
MSL
hPa
Rain
since 9 am
mm
Dir
 
Spd
km/h
Gust
km/h
Spd
kts
Gust
kts
01/02:30pm 23.9 25.5 22.2 90 1.1 SE 17 22 9 12 1015.7 - 0.2
01/02:00pm 25.2 24.8 20.9 77 2.8 SE 24 35 13 19 1015.9 - 0.0
01/01:30pm 25.5 24.9 20.5 74 3.3 ESE 24 41 13 22 1016.3 - 0.0
01/01:00pm 26.0 25.6 21.0 74 3.3 ESE 24 32 13 17 1016.7 - 0.0
01/12:30pm 24.7 24.9 21.4 82 2.2 SE 22 32 12 17 1017.1 - 0.0
01/12:26pm 24.5 23.7 21.6 84 1.9 SE 28 46 15 25 1017.2 - 0.0
01/12:00pm 26.2 25.7 21.4 75 3.2 ESE 26 37 14 20 1017.4 1017.3 0.0
01/11:30am 26.0 25.8 21.2 75 3.2 ESE 24 37 13 20 1017.6 - 0.0
01/11:00am 26.2 25.2 21.2 74 3.3 ESE 28 41 15 22 1017.9 - 0.0
01/10:30am 25.7 24.1 20.7 74 3.3 ESE 30 44 16 24 1018.0 - 0.0
01/10:19am 26.2 25.2 21.2 74 3.3 ESE 28 46 15 25 1018.1 - 0.0
01/10:00am 24.8 23.6 20.9 79 2.6 SE 28 39 15 21 1018.2 - 0.0
01/09:37am 24.5 24.0 20.8 80 2.4 SE 24 33 13 18 1018.1 - 0.0
01/09:30am 24.9 24.4 21.4 81 2.3 ESE 26 43 14 23 1018.2 - 0.0
01/09:00am 24.6 25.0 21.7 84 1.9 SE 22 35 12 19 1018.1 1018.0 32.4
01/08:53am 24.4 25.1 21.5 84 1.9 ESE 20 28 11 15 1018.0 - 32.4
01/08:30am 24.2 24.3 21.1 83 2.0 ESE 22 32 12 17 1017.9 - 32.4
01/08:00am 23.8 24.9 21.3 86 1.6 ESE 17 22 9 12 1017.4 - 32.4
01/07:30am 22.9 24.4 21.2 90 1.1 SE 15 19 8 10 1017.0 - 32.4
01/07:00am 22.4 24.0 20.7 90 1.1 SE 13 19 7 10 1016.9 - 32.4
01/06:30am 22.4 23.6 20.7 90 1.1 SE 15 24 8 13 1016.7 - 32.4
01/06:01am 22.4 24.0 21.4 94 0.7 SE 15 20 8 11 1016.4 - 32.4
01/06:00am 22.4 24.0 21.4 94 0.7 SE 15 20 8 11 1016.4 1016.3 32.4
01/05:39am 22.4 24.2 21.9 97 0.3 SE 15 20 8 11 1016.2 - 32.4
01/05:30am 22.1 24.3 21.8 98 0.2 SE 13 19 7 10 1016.1 - 32.4
01/05:00am 21.5 24.8 21.5 100 0.0 SE 6 11 3 6 1016.0 - 32.4
01/04:30am 20.7 24.7 20.5 99 0.1 CALM 0 0 0 0 1015.9 - 32.4
01/04:00am 21.1 25.3 20.9 99 0.1 CALM 0 0 0 0 1016.0 - 32.4
01/03:30am 21.1 25.3 20.9 99 0.1 CALM 0 0 0 0 1016.0 - 32.4
01/03:00am 20.9 25.0 20.7 99 0.1 CALM 0 0 0 0 1016.1 1016.0 31.4
01/02:31am 20.9 25.0 20.7 99 0.1 CALM 0 0 0 0 1016.3 - 31.4
01/02:30am 21.0 25.1 20.8 99 0.1 CALM 0 0 0 0 1016.3 - 31.4
01/02:00am 20.9 24.2 20.7 99 0.1 WSW 4 9 2 5 1016.6 - 31.4
01/01:30am 20.9 24.2 20.7 99 0.1 NNW 4 7 2 4 1016.7 - 23.8
01/01:09am 21.0 23.7 20.7 98 0.2 WNW 7 9 4 5 1017.0 - 23.8
01/01:00am 21.0 23.7 20.7 98 0.2 NW 7 9 4 5 1017.2 - 23.8
01/12:30am 21.2 23.5 20.7 97 0.3 SSW 9 9 5 5 1017.4 - 23.8
01/12:00am 21.1 22.2 20.4 96 0.5 ENE 15 32 8 17 1017.4 1017.4 23.6
 
Date/Time
EST
Temp
°C
App
Temp
°C
Dew
Point
Rel
Hum
%
Delta-T
°C
Wind Press
QNH
hPa
Press
MSL
hPa
Rain
since 9 am
mm
Dir
 
Spd
km/h
Gust
km/h
Spd
kts
Gust
kts
30/11:30pm 22.0 24.0 21.5 97 0.3 ESE 13 19 7 10 1017.5 - 20.2
30/11:24pm 22.0 24.1 21.7 98 0.2 ESE 13 19 7 10 1017.5 - 20.2
30/11:03pm 21.7 24.9 21.2 97 0.3 SSE 6 9 3 5 1017.6 - 20.0
30/11:00pm 21.6 24.7 21.1 97 0.3 S 6 9 3 5 1017.5 - 20.0
30/10:30pm 21.6 25.5 21.1 97 0.3 ESE 2 9 1 5 1017.7 - 19.8
30/10:25pm 21.7 24.7 21.2 97 0.3 ESE 7 15 4 8 1017.8 - 19.8
30/10:00pm 21.5 23.2 21.0 97 0.3 E 13 20 7 11 1018.0 - 19.4
30/09:55pm 21.3 23.3 20.8 97 0.3 E 11 19 6 10 1018.0 - 19.4
30/09:51pm 21.2 23.2 20.7 97 0.3 ENE 11 20 6 11 1017.9 - 19.4
30/09:30pm 21.2 21.6 20.7 97 0.3 E 19 30 10 16 1018.0 - 16.6
30/09:00pm 21.9 24.2 21.4 97 0.3 S 11 15 6 8 1017.1 1017.1 5.4
30/08:35pm 22.0 25.2 21.3 96 0.5 SSE 6 7 3 4 1017.0 - 3.6
30/08:30pm 22.0 25.2 21.3 96 0.5 SSE 6 7 3 4 1016.9 - 3.4
30/08:28pm 22.0 25.2 21.3 96 0.5 SSE 6 9 3 5 1016.9 - 3.4
30/08:13pm 22.1 26.4 21.1 94 0.7 CALM 0 0 0 0 1016.7 - 2.2
30/08:00pm 21.9 26.0 20.7 93 0.8 CALM 0 0 0 0 1016.7 - 1.6
30/07:30pm 22.0 26.2 21.0 94 0.7 CALM 0 0 0 0 1016.2 - 1.6
30/07:00pm 22.1 25.0 20.7 92 0.9 SSE 6 11 3 6 1016.0 - 1.6
30/06:30pm 22.0 23.4 20.3 90 1.1 ESE 13 19 7 10 1015.8 - 1.6
30/06:12pm 22.2 25.1 21.7 97 0.3 SSE 9 15 5 8 1015.7 - 1.6
30/06:01pm 22.3 25.6 21.8 97 0.3 S 7 9 4 5 1015.6 - 1.6
30/06:00pm 22.2 25.4 21.7 97 0.3 S 7 9 4 5 1015.6 1015.5 1.6
30/05:30pm 22.3 25.5 21.6 96 0.5 S 7 13 4 7 1015.2 - 1.6
30/05:00pm 22.1 24.0 21.3 95 0.5 SSE 13 32 7 17 1014.9 - 1.6
30/04:30pm 24.0 24.8 20.7 82 2.2 ESE 17 32 9 17 1014.5 - 0.2
30/04:00pm 25.3 26.7 21.0 77 2.8 ESE 15 20 8 11 1014.1 - 0.2
30/03:30pm 25.6 25.8 20.2 72 3.5 ESE 19 28 10 15 1014.0 - 0.2
30/03:00pm 26.9 27.7 21.4 72 3.7 E 19 28 10 15 1014.1 1014.0 0.2
30/02:30pm 26.5 27.1 20.3 68 4.1 ESE 17 24 9 13 1014.2 - 0.2
30/02:00pm 26.4 26.5 20.0 68 4.2 ESE 19 28 10 15 1014.4 - 0.2
30/01:30pm 26.6 26.4 19.7 66 4.5 ESE 20 28 11 15 1014.9 - 0.2
30/01:00pm 25.9 26.6 20.5 72 3.5 SSE 17 24 9 13 1015.2 - 0.2
30/12:30pm 26.2 28.0 21.8 77 2.9 ESE 15 22 8 12 1015.6 - 0.2
30/12:03pm 25.6 26.9 20.8 75 3.2 SSE 15 24 8 13 1016.1 - 0.2
30/12:00pm 25.7 27.1 21.1 76 3.0 SSE 15 22 8 12 1016.2 1016.0 0.2
30/11:53am 25.3 26.2 20.8 76 3.0 SE 17 24 9 13 1016.2 - 0.2
30/11:50am 25.2 25.5 20.5 75 3.1 SSE 19 24 10 13 1016.3 - 0.2
30/11:30am 25.2 26.6 21.1 78 2.7 SSE 15 24 8 13 1016.5 - 0.2
30/11:00am 24.7 25.2 20.8 79 2.6 SSE 19 28 10 15 1016.7 - 0.0
30/10:30am 23.9 25.5 20.8 83 2.0 SSE 13 19 7 10 1016.9 - 0.0
30/10:00am 22.7 24.8 21.0 90 1.1 S 11 17 6 9 1017.1 - 0.0
30/09:30am 22.1 25.3 21.3 95 0.5 S 6 7 3 4 1017.2 - 0.0
30/09:00am 21.5 24.0 21.0 97 0.3 S 9 11 5 6 1017.1 1017.0 1.4
30/08:49am 21.4 23.8 20.9 97 0.3 SSE 9 15 5 8 1017.0 - 1.4
30/08:30am 21.2 24.3 21.0 99 0.1 S 6 9 3 5 1016.8 - 1.4
30/08:00am 20.6 23.5 20.6 100 0.0 S 6 11 3 6 1016.4 - 1.4
30/07:30am 19.7 23.3 19.7 100 0.0 CALM 0 0 0 0 1016.2 - 1.4
30/07:00am 18.4 21.4 18.4 100 0.0 CALM 0 0 0 0 1015.9 - 1.4
30/06:30am 18.3 21.2 18.3 100 0.0 CALM 0 0 0 0 1015.4 - 1.4
30/06:00am 18.0 20.8 18.0 100 0.0 CALM 0 0 0 0 1015.1 1015.0 1.4
30/05:45am 17.7 20.3 17.5 99 0.1 CALM 0 0 0 0 1015.1 - 1.4
30/05:33am 17.7 20.3 17.5 99 0.1 CALM 0 0 0 0 1015.2 - 1.4
30/05:30am 17.6 20.2 17.4 99 0.1 CALM 0 0 0 0 1015.2 - 1.4
30/05:00am 17.3 19.7 17.1 99 0.1 CALM 0 0 0 0 1015.0 - 1.4
30/04:30am 17.4 19.9 17.2 99 0.1 CALM 0 6 0 3 1015.0 - 1.4
30/04:00am 17.5 18.9 17.3 99 0.1 WNW 6 9 3 5 1015.0 - 1.4
30/03:30am 17.4 19.9 17.2 99 0.1 CALM 0 0 0 0 1015.0 - 1.4
30/03:00am 17.6 20.2 17.4 99 0.1 CALM 0 0 0 0 1015.1 1015.0 1.4
30/02:30am 17.8 20.4 17.6 99 0.1 CALM 0 0 0 0 1015.4 - 1.4
30/02:00am 17.9 20.6 17.7 99 0.1 CALM 0 0 0 0 1015.6 - 1.4
30/01:30am 18.1 20.5 17.9 99 0.1 WNW 2 6 1 3 1015.8 - 1.4
30/01:00am 18.1 20.8 17.8 98 0.2 CALM 0 6 0 3 1015.9 - 1.4
30/12:30am 18.4 21.3 18.2 99 0.1 CALM 0 0 0 0 1016.0 - 1.4
30/12:00am 18.3 21.1 18.0 98 0.2 CALM 0 0 0 0 1016.1 1016.0 1.4
 
Date/Time
EST
Temp
°C
App
Temp
°C
Dew
Point
Rel
Hum
%
Delta-T
°C
Wind Press
QNH
hPa
Press
MSL
hPa
Rain
since 9 am
mm
Dir
 
Spd
km/h
Gust
km/h
Spd
kts
Gust
kts
29/11:30pm 18.7 21.7 18.4 98 0.2 CALM 0 0 0 0 1016.4 - 1.4
29/11:00pm 18.9 21.9 18.4 97 0.3 CALM 0 0 0 0 1016.6 - 1.4
29/10:30pm 19.4 22.6 18.9 97 0.3 CALM 0 0 0 0 1016.7 - 1.4
29/10:00pm 19.7 23.0 19.2 97 0.3 CALM 0 0 0 0 1016.7 - 1.4
29/09:30pm 19.7 23.0 19.2 97 0.3 CALM 0 0 0 0 1016.8 - 1.4
29/09:00pm 20.2 23.7 19.5 96 0.4 CALM 0 0 0 0 1016.7 1016.6 1.4
29/08:30pm 21.0 24.9 20.3 96 0.5 CALM 0 0 0 0 1016.5 - 1.4
29/08:00pm 21.4 25.0 20.6 95 0.5 SE 2 6 1 3 1016.4 - 1.4
29/07:30pm 21.9 24.5 21.2 96 0.5 SSE 9 11 5 6 1016.1 - 1.4
29/07:00pm 22.1 26.1 21.4 96 0.5 E 2 6 1 3 1015.7 - 1.4
29/06:30pm 21.9 26.2 21.1 95 0.5 CALM 0 0 0 0 1015.4 - 1.4
29/06:00pm 22.3 25.8 21.1 93 0.8 S 4 7 2 4 1015.2 1015.1 1.4
29/05:30pm 23.0 26.1 21.4 91 1.1 SSE 7 11 4 6 1015.0 - 1.4
29/05:00pm 22.5 26.0 21.1 92 0.9 S 4 7 2 4 1014.9 - 1.4
29/04:30pm 22.5 25.0 21.1 92 0.9 SE 9 13 5 7 1014.7 - 1.4
29/04:00pm 24.0 25.2 20.7 82 2.2 E 15 26 8 14 1014.3 - 0.6
29/03:30pm 23.0 25.3 20.7 87 1.5 E 9 13 5 7 1014.5 - 0.6
29/03:00pm 25.0 24.0 19.6 72 3.5 ESE 24 33 13 18 1014.7 1014.6 0.0
29/02:30pm 25.2 24.7 20.0 73 3.4 ESE 22 35 12 19 1014.8 - 0.0
29/02:00pm 26.3 26.6 20.4 70 3.9 ESE 19 28 10 15 1015.0 - 0.0
29/01:30pm 26.4 26.9 20.0 68 4.2 E 17 24 9 13 1015.4 - 0.0
29/01:00pm 26.6 26.7 20.0 67 4.3 E 19 28 10 15 1015.9 - 0.0
29/12:30pm 25.9 26.4 19.3 67 4.2 ESE 15 22 8 12 1016.2 - 0.0
29/12:00pm 25.9 25.5 19.3 67 4.2 ESE 20 32 11 17 1016.7 - 0.0
29/11:30am 26.2 26.7 20.1 69 4.0 SE 17 22 9 12 1016.9 - 0.0
29/11:00am 24.4 24.9 19.2 73 3.3 SSE 15 20 8 11 1017.4 - 0.0
29/10:30am 24.3 25.3 19.4 74 3.1 SE 13 20 7 11 1017.7 - 0.0
29/10:00am 24.1 24.6 19.2 74 3.1 SE 15 19 8 10 1018.0 - 0.0
29/09:30am 23.9 25.1 20.0 79 2.5 SSE 13 20 7 11 1018.2 - 0.0
29/09:00am 22.6 24.5 19.8 84 1.8 SSE 9 15 5 8 1018.2 1018.1 0.0
29/08:30am 21.0 23.0 19.1 89 1.2 S 7 13 4 7 1018.1 - 0.0
29/08:00am 20.0 23.6 19.8 99 0.1 CALM 0 0 0 0 1017.9 - 0.0
29/07:30am 17.6 20.2 17.4 99 0.1 CALM 0 0 0 0 1017.7 - 0.0
29/07:00am 16.8 19.0 16.5 98 0.2 CALM 0 0 0 0 1017.3 - 0.0
29/06:30am 17.0 19.3 16.7 98 0.2 CALM 0 0 0 0 1017.1 - 0.0
29/06:00am 17.0 19.3 16.7 98 0.2 CALM 0 0 0 0 1016.8 1016.8 0.0
29/05:30am 17.2 19.6 16.9 98 0.2 CALM 0 0 0 0 1016.5 - 0.0
29/05:22am 17.2 19.6 16.9 98 0.2 CALM 0 0 0 0 1016.5 - 0.0
29/05:12am 17.1 19.4 16.8 98 0.2 CALM 0 0 0 0 1016.5 - 0.0
29/05:00am 17.1 19.4 16.8 98 0.2 CALM 0 0 0 0 1016.6 - 0.0
29/04:30am 17.0 19.3 16.7 98 0.2 CALM 0 0 0 0 1016.4 - 0.0
29/04:00am 17.0 19.3 16.7 98 0.2 CALM 0 0 0 0 1016.5 - 0.0
29/03:30am 17.1 19.4 16.8 98 0.2 CALM 0 0 0 0 1016.7 - 0.0
29/03:00am 17.2 19.6 16.9 98 0.2 CALM 0 0 0 0 1016.8 1016.7 0.0
29/02:30am 17.4 19.8 17.1 98 0.2 CALM 0 0 0 0 1017.0 - 0.0
29/02:00am 17.5 20.0 17.2 98 0.2 CALM 0 0 0 0 1017.2 - 0.0
29/01:30am 17.7 20.3 17.4 98 0.2 CALM 0 0 0 0 1017.6 - 0.0
29/01:00am 17.8 20.4 17.5 98 0.2 CALM 0 0 0 0 1017.7 - 0.0
29/12:30am 18.0 20.6 17.5 97 0.3 CALM 0 0 0 0 1018.0 - 0.0
29/12:00am 18.3 21.0 17.8 97 0.3 CALM 0 0 0 0 1018.4 1018.3 0.0
 
Date/Time
EST
Temp
°C
App
Temp
°C
Dew
Point
Rel
Hum
%
Delta-T
°C
Wind Press
QNH
hPa
Press
MSL
hPa
Rain
since 9 am
mm
Dir
 
Spd
km/h
Gust
km/h
Spd
kts
Gust
kts
28/11:30pm 18.5 21.2 17.8 96 0.4 CALM 0 0 0 0 1018.6 - 0.0
28/11:00pm 18.9 21.9 18.4 97 0.3 CALM 0 0 0 0 1018.8 - 0.0
28/10:30pm 19.0 21.9 18.3 96 0.4 CALM 0 0 0 0 1018.9 - 0.0
28/10:00pm 19.1 22.1 18.4 96 0.4 CALM 0 0 0 0 1018.9 - 0.0
28/09:30pm 19.2 22.2 18.4 95 0.5 CALM 0 0 0 0 1018.9 - 0.0
28/09:00pm 19.6 22.8 18.8 95 0.5 CALM 0 0 0 0 1018.8 1018.8 0.0
28/08:30pm 19.9 23.1 18.9 94 0.6 CALM 0 0 0 0 1018.6 - 0.0
28/08:00pm 20.4 23.7 19.1 92 0.8 CALM 0 0 0 0 1018.4 - 0.0
28/07:30pm 21.8 23.8 19.2 85 1.6 ESE 7 9 4 5 1018.0 - 0.0
28/07:00pm 22.1 24.2 19.3 84 1.8 SE 7 9 4 5 1017.7 - 0.0
28/06:30pm 22.8 24.1 19.4 81 2.2 SE 11 15 6 8 1017.5 - 0.0
28/06:00pm 23.4 23.9 19.3 78 2.6 SE 15 20 8 11 1017.3 1017.2 0.0
28/05:30pm 24.3 24.2 19.6 75 3.0 SE 19 28 10 15 1017.0 - 0.0
28/05:00pm 24.5 24.1 19.3 73 3.3 SE 20 28 11 15 1016.7 - 0.0
28/04:30pm 24.6 24.3 19.2 72 3.5 SE 19 26 10 14 1016.5 - 0.0
28/04:00pm 24.9 23.6 19.0 69 3.8 SE 24 33 13 18 1016.4 - 0.0
28/03:30pm 25.5 24.8 19.4 69 3.9 ESE 22 33 12 18 1016.5 - 0.0
28/03:00pm 25.7 25.3 18.9 66 4.3 SE 19 26 10 14 1016.6 1016.5 0.0

Other Formats:

Comma delimited format used in spreadsheet applications
http://www.bom.gov.au/fwo/IDQ60801/IDQ60801.94186.axf

JavaScript Object Notation format (JSON) in row-major order
http://www.bom.gov.au/fwo/IDQ60801/IDQ60801.94186.json